createdAt,value
2023-04-02T00:00:28.565Z,99.90
2023-04-02T00:02:57.161Z,99.90
2023-04-02T00:05:34.565Z,99.90
2023-04-02T00:08:03.430Z,99.90
2023-04-02T00:10:32.884Z,99.90
2023-04-02T00:13:00.764Z,99.90
2023-04-02T00:15:27.756Z,99.90
2023-04-02T00:17:54.387Z,99.90
2023-04-02T00:20:21.877Z,99.90
2023-04-02T00:22:48.874Z,99.90
2023-04-02T00:25:15.588Z,99.90
2023-04-02T00:27:42.971Z,99.90
2023-04-02T00:30:11.824Z,99.90
2023-04-02T00:32:39.154Z,99.90
2023-04-02T00:35:17.402Z,99.90
2023-04-02T00:37:44.354Z,99.90
2023-04-02T00:40:24.374Z,99.90
2023-04-02T00:42:52.555Z,99.90
2023-04-02T00:45:22.974Z,99.90
2023-04-02T00:47:49.923Z,99.90
2023-04-02T00:50:42.862Z,99.90
2023-04-02T00:53:29.698Z,99.90
2023-04-02T00:55:58.295Z,99.90
2023-04-02T00:58:24.838Z,99.90
2023-04-02T01:00:51.948Z,99.90
2023-04-02T01:03:19.382Z,99.90
2023-04-02T01:05:57.467Z,99.90
2023-04-02T01:08:42.979Z,99.90
2023-04-02T01:11:28.511Z,99.90
2023-04-02T01:14:01.326Z,99.90
2023-04-02T01:16:29.220Z,99.90
2023-04-02T01:19:08.683Z,99.90
2023-04-02T01:21:42.514Z,99.90
2023-04-02T01:24:13.223Z,99.90
2023-04-02T01:27:01.091Z,99.90
2023-04-02T01:29:32.370Z,99.90
2023-04-02T01:32:02.740Z,99.90
2023-04-02T01:34:30.861Z,99.90
2023-04-02T01:37:16.843Z,99.90
2023-04-02T01:39:53.333Z,99.90
2023-04-02T01:42:19.968Z,99.90
2023-04-02T01:44:48.271Z,99.90
2023-04-02T01:47:16.839Z,99.90
2023-04-02T01:49:44.232Z,99.90
2023-04-02T01:52:16.858Z,99.90
2023-04-02T01:54:43.734Z,99.90
2023-04-02T01:57:10.600Z,99.90
2023-04-02T01:59:37.315Z,99.90
2023-04-02T02:02:03.979Z,99.90
2023-04-02T02:04:31.778Z,99.90
2023-04-02T02:07:00.698Z,99.90
2023-04-02T02:09:32.314Z,99.90
2023-04-02T02:11:59.865Z,99.90
2023-04-02T02:14:27.607Z,99.90
2023-04-02T02:16:56.645Z,99.90
2023-04-02T02:19:35.239Z,99.90
2023-04-02T02:22:20.496Z,99.90
2023-04-02T02:24:47.481Z,99.90
2023-04-02T02:27:21.347Z,99.90
2023-04-02T02:29:56.013Z,99.90
2023-04-02T02:32:25.470Z,99.90
2023-04-02T02:35:15.627Z,99.90
2023-04-02T02:37:45.558Z,99.90
2023-04-02T02:40:23.860Z,99.90
2023-04-02T02:42:54.111Z,99.90
2023-04-02T02:45:24.288Z,99.90
2023-04-02T02:47:51.906Z,99.90
2023-04-02T02:50:26.827Z,99.90
2023-04-02T02:52:54.651Z,99.90
2023-04-02T02:55:23.454Z,99.90
2023-04-02T02:57:54.003Z,99.90
2023-04-02T03:00:20.977Z,99.90
2023-04-02T03:02:49.432Z,99.90
2023-04-02T03:05:17.520Z,99.90
2023-04-02T03:07:44.178Z,99.90
2023-04-02T03:10:15.004Z,99.90
2023-04-02T03:13:02.524Z,99.90
2023-04-02T03:15:41.910Z,99.90
2023-04-02T03:18:12.106Z,99.90
2023-04-02T03:20:46.733Z,99.90
2023-04-02T03:23:20.428Z,99.90
2023-04-02T03:25:56.171Z,99.90
2023-04-02T03:28:26.089Z,99.90
2023-04-02T03:30:58.553Z,99.90
2023-04-02T03:33:31.857Z,99.90
2023-04-02T03:36:05.202Z,99.90
2023-04-02T03:38:34.949Z,99.90
2023-04-02T03:41:06.607Z,99.90
2023-04-02T03:43:52.230Z,99.90
2023-04-02T03:46:18.829Z,99.90
2023-04-02T03:48:51.611Z,99.90
2023-04-02T03:51:38.430Z,99.90
2023-04-02T03:54:05.221Z,99.90
2023-04-02T03:56:39.670Z,99.90
2023-04-02T03:59:12.215Z,99.90
2023-04-02T04:01:47.927Z,99.90
2023-04-02T04:04:17.069Z,99.90
2023-04-02T04:06:44.909Z,99.90
2023-04-02T04:09:18.574Z,99.90
2023-04-02T04:12:14.412Z,99.90
2023-04-02T04:14:44.035Z,99.90
2023-04-02T04:17:15.465Z,99.90
2023-04-02T04:19:47.544Z,99.90
2023-04-02T04:22:19.185Z,99.90
2023-04-02T04:24:46.875Z,99.90
2023-04-02T04:27:38.308Z,99.90
2023-04-02T04:30:18.206Z,99.90
2023-04-02T04:32:50.016Z,99.90
2023-04-02T04:35:21.399Z,99.90
2023-04-02T04:37:49.697Z,99.90
2023-04-02T04:40:19.702Z,99.90
2023-04-02T04:42:48.100Z,99.90
2023-04-02T04:45:25.756Z,99.90
2023-04-02T04:47:57.709Z,99.90
2023-04-02T04:50:24.277Z,99.90
2023-04-02T04:52:50.847Z,99.90
2023-04-02T04:55:24.350Z,99.90
2023-04-02T04:57:51.719Z,99.90
2023-04-02T05:00:22.645Z,99.90
2023-04-02T05:02:59.348Z,99.90
2023-04-02T05:05:29.424Z,99.90
2023-04-02T05:07:59.779Z,99.90
2023-04-02T05:10:45.111Z,99.90
2023-04-02T05:13:16.584Z,99.90
2023-04-02T05:15:53.184Z,99.90
2023-04-02T05:18:22.497Z,99.90
2023-04-02T05:21:07.896Z,99.90
2023-04-02T05:23:36.143Z,99.90
2023-04-02T05:26:12.839Z,99.90
2023-04-02T05:28:59.531Z,99.90
2023-04-02T05:31:29.653Z,99.90
2023-04-02T05:33:56.687Z,99.90
2023-04-02T05:36:25.677Z,99.90
2023-04-02T05:38:53.328Z,99.90
2023-04-02T05:41:26.997Z,99.90
2023-04-02T05:44:04.446Z,99.90
2023-04-02T05:46:33.979Z,99.90
2023-04-02T05:49:00.772Z,99.90
2023-04-02T05:51:48.909Z,99.90
2023-04-02T05:54:34.264Z,99.90
2023-04-02T05:57:03.859Z,99.90
2023-04-02T05:59:41.696Z,99.90
2023-04-02T06:02:11.416Z,99.90
2023-04-02T06:04:41.276Z,99.90
2023-04-02T06:07:21.838Z,99.90
2023-04-02T06:09:50.897Z,99.90
2023-04-02T06:12:27.607Z,99.90
2023-04-02T06:14:54.355Z,99.90
2023-04-02T06:17:21.679Z,99.90
2023-04-02T06:19:49.037Z,99.90
2023-04-02T06:22:18.410Z,99.90
2023-04-02T06:24:46.885Z,99.90
2023-04-02T06:27:16.214Z,99.90
2023-04-02T06:29:44.426Z,99.90
2023-04-02T06:32:12.111Z,99.90
2023-04-02T06:34:39.938Z,99.90
2023-04-02T06:37:27.936Z,99.90
2023-04-02T06:39:55.191Z,99.90
2023-04-02T06:42:27.378Z,99.90
2023-04-02T06:44:54.189Z,99.40
2023-04-02T06:47:26.645Z,99.90
2023-04-02T06:50:23.273Z,99.90
2023-04-02T06:52:54.668Z,99.80
2023-04-02T06:55:27.500Z,99.50
2023-04-02T06:57:54.162Z,99.60
2023-04-02T07:00:39.438Z,99.00
2023-04-02T07:03:07.266Z,99.10
2023-04-02T07:05:34.302Z,99.40
2023-04-02T07:08:01.381Z,99.50
2023-04-02T07:10:27.976Z,99.60
2023-04-02T07:12:54.564Z,99.10
2023-04-02T07:15:23.693Z,99.20
2023-04-02T07:17:50.566Z,99.00
2023-04-02T07:20:29.234Z,99.30
2023-04-02T07:22:56.009Z,99.20
2023-04-02T07:25:22.975Z,99.40
2023-04-02T07:27:50.026Z,99.10
2023-04-02T07:30:16.791Z,99.00
2023-04-02T07:32:43.607Z,99.40
2023-04-02T07:35:10.484Z,99.10
2023-04-02T07:37:38.205Z,99.20
2023-04-02T07:40:24.233Z,99.10
2023-04-02T07:42:50.956Z,99.10
2023-04-02T07:45:17.556Z,98.80
2023-04-02T07:47:44.525Z,98.50
2023-04-02T07:50:11.198Z,98.00
2023-04-02T07:52:42.549Z,97.50
2023-04-02T07:55:13.571Z,96.60
2023-04-02T07:57:43.680Z,95.90
2023-04-02T08:00:12.145Z,96.00
2023-04-02T08:02:38.760Z,96.40
2023-04-02T08:05:05.509Z,95.80
2023-04-02T08:07:32.127Z,95.60
2023-04-02T08:09:58.752Z,95.90
2023-04-02T08:12:25.448Z,96.30
2023-04-02T08:14:52.085Z,97.10
2023-04-02T08:17:18.697Z,98.60
2023-04-02T08:19:54.711Z,97.90
2023-04-02T08:22:22.140Z,98.30
2023-04-02T08:24:48.691Z,98.30
2023-04-02T08:27:15.338Z,97.40
2023-04-02T08:29:41.920Z,97.30
2023-04-02T08:32:11.322Z,97.40
2023-04-02T08:34:37.905Z,97.00
2023-04-02T08:37:04.517Z,97.00
2023-04-02T08:39:33.084Z,96.60
2023-04-02T08:42:18.462Z,96.00
2023-04-02T08:45:24.975Z,96.20
2023-04-02T08:47:55.885Z,95.60
2023-04-02T08:50:28.111Z,95.80
2023-04-02T08:52:54.860Z,95.30
2023-04-02T08:55:27.632Z,95.30
2023-04-02T08:58:01.771Z,93.70
2023-04-02T09:00:43.165Z,92.90
2023-04-02T09:03:28.688Z,91.70
2023-04-02T09:05:56.056Z,90.90
2023-04-02T09:08:27.114Z,88.40
2023-04-02T09:10:54.036Z,86.90
2023-04-02T09:13:24.892Z,84.00
2023-04-02T09:16:01.324Z,85.20
2023-04-02T09:18:30.065Z,83.20
2023-04-02T09:20:56.702Z,83.00
2023-04-02T09:23:24.148Z,83.80
2023-04-02T09:26:03.642Z,81.10
2023-04-02T09:28:31.128Z,81.70
2023-04-02T09:31:19.154Z,80.60
2023-04-02T09:33:49.485Z,78.40
2023-04-02T09:36:26.110Z,77.30
2023-04-02T09:39:01.530Z,78.60
2023-04-02T09:41:29.626Z,79.20
2023-04-02T09:44:19.721Z,78.00
2023-04-02T09:46:54.016Z,80.40
2023-04-02T09:49:25.132Z,80.90
2023-04-02T09:52:10.582Z,82.30
2023-04-02T09:54:43.715Z,81.30
2023-04-02T09:57:21.098Z,81.40
2023-04-02T09:59:47.741Z,79.90
2023-04-02T10:02:24.658Z,80.40
2023-04-02T10:04:51.629Z,78.20
2023-04-02T10:07:34.654Z,76.00
2023-04-02T10:10:20.988Z,72.20
2023-04-02T10:12:50.951Z,73.10
2023-04-02T10:15:21.303Z,73.30
2023-04-02T10:17:54.930Z,72.90
2023-04-02T10:20:24.253Z,72.00
2023-04-02T10:22:50.851Z,71.50
2023-04-02T10:25:19.470Z,65.00
2023-04-02T10:27:55.781Z,60.30
2023-04-02T10:30:28.889Z,58.60
2023-04-02T10:32:57.469Z,53.10
2023-04-02T10:35:32.226Z,49.40
2023-04-02T10:38:07.158Z,48.10
2023-04-02T10:40:39.563Z,48.00
2023-04-02T10:43:15.335Z,47.30
2023-04-02T10:45:41.954Z,46.50
2023-04-02T10:48:27.455Z,44.30
2023-04-02T10:50:57.093Z,45.60
2023-04-02T10:53:30.182Z,45.10
2023-04-02T10:56:01.317Z,47.20
2023-04-02T10:58:29.976Z,49.90
2023-04-02T11:00:59.659Z,52.80
2023-04-02T11:03:47.602Z,54.20
2023-04-02T11:06:18.943Z,55.90
2023-04-02T11:08:50.407Z,59.20
2023-04-02T11:11:31.986Z,60.40
2023-04-02T11:14:01.320Z,58.40
2023-04-02T11:16:28.263Z,52.40
2023-04-02T11:19:10.440Z,50.60
2023-04-02T11:21:57.282Z,48.00
2023-04-02T11:24:34.451Z,43.50
2023-04-02T11:27:16.349Z,42.20
2023-04-02T11:29:55.025Z,41.50
2023-04-02T11:35:06.651Z,42.50
2023-04-02T11:37:34.285Z,44.90
2023-04-02T11:40:02.011Z,46.20
2023-04-02T11:42:30.647Z,49.00
2023-04-02T11:44:59.653Z,50.10
2023-04-02T11:47:27.466Z,51.70
2023-04-02T11:50:06.361Z,53.80
2023-04-02T11:52:33.299Z,55.50
2023-04-02T11:55:01.652Z,54.90
2023-04-02T11:57:31.242Z,54.20
2023-04-02T12:00:07.891Z,55.00
2023-04-02T12:02:41.081Z,56.10
2023-04-02T12:05:07.796Z,56.20
2023-04-02T12:07:46.706Z,57.50
2023-04-02T12:10:20.953Z,56.40
2023-04-02T12:12:47.650Z,55.10
2023-04-02T12:15:27.017Z,56.10
2023-04-02T12:17:53.641Z,53.80
2023-04-02T12:20:22.624Z,48.40
2023-04-02T12:22:53.860Z,47.30
2023-04-02T12:25:29.308Z,48.10
2023-04-02T12:28:11.002Z,49.10
2023-04-02T12:30:38.356Z,50.40
2023-04-02T12:33:15.771Z,49.90
2023-04-02T12:35:43.401Z,46.80
2023-04-02T12:38:20.992Z,44.60
2023-04-02T12:40:57.531Z,45.90
2023-04-02T12:43:25.342Z,46.80
2023-04-02T12:45:53.544Z,47.40
2023-04-02T12:48:20.864Z,45.30
2023-04-02T12:50:48.132Z,46.00
2023-04-02T12:53:33.907Z,47.30
2023-04-02T12:56:01.113Z,44.30
2023-04-02T12:58:29.905Z,45.30
2023-04-02T13:01:10.106Z,47.50
2023-04-02T13:03:36.806Z,50.90
2023-04-02T13:06:04.036Z,52.00
2023-04-02T13:08:33.137Z,53.30
2023-04-02T13:11:01.462Z,55.00
2023-04-02T13:13:37.884Z,56.20
2023-04-02T13:16:19.840Z,56.00
2023-04-02T13:18:47.662Z,56.70
2023-04-02T13:21:17.697Z,56.80
2023-04-02T13:23:45.865Z,52.10
2023-04-02T13:26:12.510Z,52.00
2023-04-02T13:28:39.226Z,49.20
2023-04-02T13:31:06.222Z,50.80
2023-04-02T13:33:32.822Z,52.30
2023-04-02T13:35:59.621Z,51.10
2023-04-02T13:38:26.324Z,48.70
2023-04-02T13:40:52.985Z,48.10
2023-04-02T13:43:20.129Z,49.10
2023-04-02T13:45:51.510Z,51.70
2023-04-02T13:48:18.636Z,51.20
2023-04-02T13:50:46.540Z,49.10
2023-04-02T13:53:19.904Z,48.30
2023-04-02T13:55:46.765Z,50.00
2023-04-02T13:58:13.436Z,52.80
2023-04-02T14:00:41.077Z,53.80
2023-04-02T14:03:13.919Z,50.30
2023-04-02T14:05:47.177Z,48.50
2023-04-02T14:08:27.382Z,46.70
2023-04-02T14:11:03.243Z,44.80
2023-04-02T14:13:48.778Z,43.60
2023-04-02T14:16:21.418Z,43.20
2023-04-02T14:18:48.064Z,43.30
2023-04-02T14:21:21.168Z,42.60
2023-04-02T14:24:06.476Z,44.50
2023-04-02T14:26:51.852Z,46.40
2023-04-02T14:29:18.388Z,47.10
2023-04-02T14:31:57.286Z,46.80
2023-04-02T14:34:33.159Z,50.00
2023-04-02T14:37:18.699Z,51.80
2023-04-02T14:39:51.767Z,52.10
2023-04-02T14:42:21.683Z,51.50
2023-04-02T14:45:02.096Z,46.80
2023-04-02T14:47:36.571Z,48.80
2023-04-02T14:50:07.179Z,50.10
2023-04-02T14:52:34.967Z,52.20
2023-04-02T14:55:03.463Z,54.30
2023-04-02T14:57:32.338Z,55.50
2023-04-02T15:00:05.172Z,57.10
2023-04-02T15:02:35.475Z,58.30
2023-04-02T15:05:04.433Z,56.20
2023-04-02T15:07:35.988Z,56.00
2023-04-02T15:10:16.933Z,55.50
2023-04-02T15:12:45.073Z,57.40
2023-04-02T15:15:11.624Z,58.90
2023-04-02T15:17:38.305Z,59.80
2023-04-02T15:20:15.859Z,58.90
2023-04-02T15:22:47.471Z,57.70
2023-04-02T15:25:24.409Z,59.10
2023-04-02T15:28:07.231Z,59.20
2023-04-02T15:30:35.119Z,59.70
2023-04-02T15:33:20.650Z,61.70
2023-04-02T15:35:52.333Z,63.10
2023-04-02T15:38:37.870Z,64.10
2023-04-02T15:41:04.459Z,63.80
2023-04-02T15:43:39.257Z,61.90
2023-04-02T15:46:06.353Z,62.20
2023-04-02T15:48:36.098Z,65.50
2023-04-02T15:51:11.975Z,62.60
2023-04-02T15:53:51.823Z,63.00
2023-04-02T15:56:26.298Z,61.00
2023-04-02T15:59:02.130Z,58.80
2023-04-02T16:01:35.306Z,58.70
2023-04-02T16:04:20.916Z,59.30
2023-04-02T16:07:06.790Z,59.90
2023-04-02T16:09:45.603Z,61.10
2023-04-02T16:12:14.601Z,62.60
2023-04-02T16:14:42.313Z,63.50
2023-04-02T16:17:23.897Z,63.40
2023-04-02T16:19:56.226Z,65.80
2023-04-02T16:22:26.446Z,64.80
2023-04-02T16:25:06.790Z,64.30
2023-04-02T16:27:37.540Z,63.20
2023-04-02T16:30:23.079Z,62.30
2023-04-02T16:32:59.458Z,62.30
2023-04-02T16:35:42.670Z,63.60
2023-04-02T16:38:24.362Z,64.30
2023-04-02T16:41:08.364Z,65.10
2023-04-02T16:44:14.266Z,65.80
2023-04-02T16:46:54.540Z,66.30
2023-04-02T16:49:36.205Z,66.40
2023-04-02T16:52:07.882Z,66.60
2023-04-02T16:54:49.624Z,66.90
2023-04-02T16:57:21.943Z,67.50
2023-04-02T16:59:54.163Z,68.50
2023-04-02T17:02:23.536Z,68.70
2023-04-02T17:04:53.537Z,68.50
2023-04-02T17:07:29.001Z,68.60
2023-04-02T17:10:08.073Z,69.50
2023-04-02T17:12:43.506Z,69.60
2023-04-02T17:15:27.828Z,69.60
2023-04-02T17:17:58.918Z,70.40
2023-04-02T17:20:26.530Z,70.30
2023-04-02T17:22:54.096Z,70.90
2023-04-02T17:25:30.192Z,70.50
2023-04-02T17:27:57.112Z,71.10
2023-04-02T17:30:36.032Z,71.70
2023-04-02T17:33:05.748Z,72.00
2023-04-02T17:35:52.649Z,72.50
2023-04-02T17:38:22.298Z,72.70
2023-04-02T17:40:54.448Z,72.90
2023-04-02T17:43:39.845Z,72.70
2023-04-02T17:46:25.236Z,73.20
2023-04-02T17:49:00.783Z,73.20
2023-04-02T17:51:34.741Z,74.00
2023-04-02T17:54:14.298Z,74.50
2023-04-02T17:56:47.682Z,75.10
2023-04-02T17:59:17.015Z,75.30
2023-04-02T18:01:50.686Z,75.60
2023-04-02T18:04:23.375Z,75.90
2023-04-02T18:07:08.401Z,76.30
2023-04-02T18:09:39.286Z,76.90
2023-04-02T18:12:19.464Z,76.80
2023-04-02T18:14:56.604Z,76.50
2023-04-02T18:17:29.124Z,77.10
2023-04-02T18:20:14.276Z,77.40
2023-04-02T18:22:50.668Z,77.40
2023-04-02T18:25:38.541Z,77.30
2023-04-02T18:28:15.027Z,77.70
2023-04-02T18:30:41.686Z,78.00
2023-04-02T18:33:14.258Z,78.80
2023-04-02T18:35:59.746Z,79.00
2023-04-02T18:38:33.180Z,79.60
2023-04-02T18:41:08.963Z,79.60
2023-04-02T18:43:38.661Z,79.90
2023-04-02T18:46:05.469Z,80.40
2023-04-02T18:49:01.790Z,80.70
2023-04-02T18:51:32.037Z,81.30
2023-04-02T18:54:12.896Z,81.30
2023-04-02T18:56:40.364Z,81.90
2023-04-02T18:59:06.886Z,82.30
2023-04-02T19:01:36.511Z,82.80
2023-04-02T19:04:08.445Z,83.40
2023-04-02T19:06:36.764Z,83.80
2023-04-02T19:09:07.908Z,83.80
2023-04-02T19:11:34.521Z,84.20
2023-04-02T19:14:02.300Z,84.70
2023-04-02T19:16:37.701Z,85.00
2023-04-02T19:19:07.398Z,85.20
2023-04-02T19:21:40.258Z,85.90
2023-04-02T19:24:13.037Z,86.40
2023-04-02T19:26:43.970Z,86.60
2023-04-02T19:29:16.746Z,86.40
2023-04-02T19:31:47.361Z,87.00
2023-04-02T19:34:25.869Z,87.00
2023-04-02T19:37:13.932Z,87.90
2023-04-02T19:39:46.593Z,89.50
2023-04-02T19:42:23.286Z,89.50
2023-04-02T19:44:50.922Z,90.10
2023-04-02T19:47:18.509Z,90.00
2023-04-02T19:49:45.155Z,90.30
2023-04-02T19:52:11.996Z,90.50
2023-04-02T19:54:38.794Z,90.80
2023-04-02T19:57:05.713Z,90.80
2023-04-02T19:59:32.422Z,90.90
2023-04-02T20:01:59.032Z,91.20
2023-04-02T20:04:25.773Z,91.60
2023-04-02T20:06:52.455Z,91.40
2023-04-02T20:09:19.171Z,91.70
2023-04-02T20:11:45.838Z,91.90
2023-04-02T20:14:12.433Z,92.10
2023-04-02T20:16:39.184Z,92.20
2023-04-02T20:19:06.049Z,92.30
2023-04-02T20:21:38.077Z,92.20
2023-04-02T20:24:08.202Z,92.50
2023-04-02T20:26:35.765Z,92.60
2023-04-02T20:29:02.535Z,92.80
2023-04-02T20:31:30.727Z,93.10
2023-04-02T20:33:58.739Z,93.10
2023-04-02T20:36:25.677Z,93.30
2023-04-02T20:38:52.561Z,93.50
2023-04-02T20:41:19.518Z,93.70
2023-04-02T20:43:46.169Z,94.10
2023-04-02T20:46:13.256Z,94.00
2023-04-02T20:48:40.131Z,94.00
2023-04-02T20:51:08.150Z,94.00
2023-04-02T20:53:35.731Z,94.20
2023-04-02T20:56:06.789Z,94.30
2023-04-02T20:58:34.281Z,94.40
2023-04-02T21:01:08.318Z,94.40
2023-04-02T21:03:35.103Z,94.60
2023-04-02T21:06:01.764Z,94.90
2023-04-02T21:08:28.477Z,94.90
2023-04-02T21:11:00.973Z,94.90
2023-04-02T21:13:29.250Z,95.00
2023-04-02T21:15:56.014Z,95.20
2023-04-02T21:18:22.826Z,95.40
2023-04-02T21:21:15.580Z,95.50
2023-04-02T21:23:42.898Z,95.60
2023-04-02T21:26:11.603Z,95.60
2023-04-02T21:28:38.274Z,95.80
2023-04-02T21:31:12.399Z,96.00
2023-04-02T21:33:40.915Z,96.00
2023-04-02T21:36:07.626Z,96.00
2023-04-02T21:38:34.502Z,96.10
2023-04-02T21:41:21.318Z,96.20
2023-04-02T21:43:48.398Z,96.30
2023-04-02T21:46:19.163Z,96.40
2023-04-02T21:48:45.964Z,96.60
2023-04-02T21:51:16.356Z,99.90
2023-04-02T21:53:43.374Z,99.90
2023-04-02T21:56:14.367Z,99.90
2023-04-02T21:58:41.120Z,98.10
2023-04-02T22:01:13.999Z,97.40
2023-04-02T22:03:47.210Z,97.70
2023-04-02T22:06:15.828Z,97.80
2023-04-02T22:08:42.985Z,97.90
2023-04-02T22:11:09.649Z,97.80
2023-04-02T22:13:36.884Z,97.90
2023-04-02T22:16:05.760Z,98.20
2023-04-02T22:18:34.411Z,98.30
2023-04-02T22:21:01.596Z,98.30
2023-04-02T22:23:28.559Z,98.60
2023-04-02T22:25:56.566Z,98.80
2023-04-02T22:28:23.469Z,98.70
2023-04-02T22:30:51.100Z,98.70
2023-04-02T22:33:17.892Z,98.70
2023-04-02T22:35:44.612Z,98.90
2023-04-02T22:38:11.458Z,98.80
2023-04-02T22:40:38.260Z,98.90
2023-04-02T22:43:04.989Z,98.90
2023-04-02T22:45:31.541Z,99.00
2023-04-02T22:47:58.179Z,98.80
2023-04-02T22:50:24.877Z,98.90
2023-04-02T22:52:51.530Z,98.80
2023-04-02T22:55:18.196Z,98.80
2023-04-02T22:57:45.140Z,99.10
2023-04-02T23:00:14.240Z,98.90
2023-04-02T23:02:41.097Z,98.90
2023-04-02T23:05:08.293Z,98.70
2023-04-02T23:07:35.458Z,98.70
2023-04-02T23:10:03.901Z,98.80
2023-04-02T23:12:31.842Z,98.80
2023-04-02T23:14:58.958Z,98.70
2023-04-02T23:17:25.840Z,99.20
2023-04-02T23:19:52.428Z,98.70
2023-04-02T23:22:19.022Z,98.40
2023-04-02T23:24:45.706Z,98.50
2023-04-02T23:27:12.355Z,98.50
2023-04-02T23:29:38.994Z,98.50
2023-04-02T23:32:05.835Z,98.80
2023-04-02T23:34:32.490Z,98.50
2023-04-02T23:36:59.058Z,98.50
2023-04-02T23:39:25.687Z,98.30
2023-04-02T23:41:52.272Z,98.40
2023-04-02T23:44:18.938Z,98.50
2023-04-02T23:46:45.686Z,98.40
2023-04-02T23:49:13.060Z,98.70
2023-04-02T23:51:40.623Z,98.60
2023-04-02T23:54:07.567Z,98.50
2023-04-02T23:56:34.173Z,98.60
2023-04-02T23:59:00.826Z,98.40
